Terminal Aerodrome Forecast
Issued by NWS

Home | Current Version | Previous Version | Graphics & Text | Print | Product List | Glossary Off
Versions: 1 2 3 4 5 6 7 8 9 10 11 12 13 14 15 16

000
FTUS43 KGRB 110525
TAFAUW
TAF
KAUW 110525Z 1106/1206 11003KT 1 1/2SM -SN OVC024
      TEMPO 1106/1108 1SM -SN OVC018
     FM110800 09007KT 1SM -SN OVC014
      TEMPO 1113/1117 3/4SM -SN OVC006
     FM111700 10006KT 2SM -SN BR OVC010
     FM112100 09003KT 5SM -SN BR OVC018
     FM120100 29005KT 6SM BR BKN022=

USA.gov is the U.S. government's official web portal to all federal, state and local government web resources and services.